createdAt,value
2023-04-15T04:02:13.879Z,8.03
2023-04-15T04:06:26.297Z,7.77
2023-04-15T04:10:37.774Z,6.47
2023-04-15T04:14:49.207Z,5.30
2023-04-15T04:19:01.131Z,3.20
2023-04-15T04:23:12.773Z,4.47
2023-04-15T04:27:24.184Z,4.33
2023-04-15T04:31:35.681Z,3.17
2023-04-15T04:35:47.150Z,3.73
2023-04-15T04:39:58.595Z,6.23
2023-04-15T04:44:10.115Z,4.37
2023-04-15T04:48:21.650Z,11.00
2023-04-15T04:52:33.172Z,9.77
2023-04-15T04:56:44.608Z,5.13
2023-04-15T05:00:56.687Z,4.90
2023-04-15T05:05:08.643Z,5.83
2023-04-15T05:09:20.172Z,5.17
2023-04-15T05:13:31.670Z,9.27
2023-04-15T05:17:43.171Z,7.87
2023-04-15T05:21:54.690Z,7.90
2023-04-15T05:26:06.149Z,7.83
2023-04-15T05:30:17.671Z,6.80
2023-04-15T05:34:29.129Z,9.57
2023-04-15T05:38:40.952Z,10.63
2023-04-15T05:42:52.392Z,14.17
2023-04-15T05:47:03.849Z,13.60
2023-04-15T05:51:15.512Z,11.00
2023-04-15T05:55:27.368Z,7.93
2023-04-15T05:59:38.905Z,11.33
2023-04-15T06:03:51.216Z,13.00
2023-04-15T06:08:03.038Z,14.23
2023-04-15T06:12:14.509Z,13.30
2023-04-15T06:16:26.231Z,12.17
2023-04-15T06:20:38.426Z,13.27
2023-04-15T06:24:53.244Z,9.80
2023-04-15T06:29:04.684Z,13.07
2023-04-15T06:33:16.493Z,10.27
2023-04-15T06:37:28.032Z,8.90
2023-04-15T06:41:39.679Z,7.97
2023-04-15T06:45:51.630Z,7.18
2023-04-15T06:50:03.927Z,8.07
2023-04-15T06:54:15.441Z,5.30
2023-04-15T06:58:26.933Z,6.97
2023-04-15T07:02:38.684Z,5.28
2023-04-15T07:06:50.642Z,4.25
2023-04-15T07:11:02.448Z,6.80
2023-04-15T07:15:13.961Z,3.72
2023-04-15T07:19:25.447Z,3.33
2023-04-15T07:23:36.933Z,4.80
2023-04-15T07:27:48.539Z,3.13
2023-04-15T07:32:00.035Z,5.03
2023-04-15T07:36:11.587Z,2.92
2023-04-15T07:40:23.054Z,4.00
2023-04-15T07:44:34.573Z,4.75
2023-04-15T07:48:46.426Z,4.30
2023-04-15T07:52:58.028Z,3.35
2023-04-15T07:57:09.535Z,4.13
2023-04-15T08:01:21.028Z,2.75
2023-04-15T08:05:33.037Z,3.20
2023-04-15T08:09:44.545Z,5.13
2023-04-15T08:13:56.096Z,3.70
2023-04-15T08:18:07.620Z,3.78
2023-04-15T08:22:20.554Z,2.53
2023-04-15T08:26:32.782Z,5.10
2023-04-15T08:30:44.248Z,5.15
2023-04-15T08:34:55.769Z,5.65
2023-04-15T08:39:07.749Z,3.45
2023-04-15T08:43:27.880Z,4.10
2023-04-15T08:47:40.510Z,5.63
2023-04-15T08:51:52.382Z,4.88
2023-04-15T08:56:07.436Z,4.03
2023-04-15T09:00:19.332Z,2.30
2023-04-15T09:04:31.386Z,3.05
2023-04-15T09:08:42.877Z,5.85
2023-04-15T09:12:54.921Z,3.88
2023-04-15T09:17:10.378Z,5.85
2023-04-15T09:21:23.500Z,2.35
2023-04-15T09:25:35.244Z,3.38
2023-04-15T09:29:51.489Z,4.82
2023-04-15T09:34:03.336Z,2.83
2023-04-15T09:38:15.041Z,2.75
2023-04-15T09:42:27.356Z,2.58
2023-04-15T09:46:45.587Z,2.10
2023-04-15T09:51:01.799Z,2.92
2023-04-15T09:55:16.031Z,4.63
2023-04-15T09:59:27.578Z,2.33
2023-04-15T10:03:42.227Z,7.70
2023-04-15T10:07:54.127Z,2.15
2023-04-15T10:12:05.784Z,2.60
2023-04-15T10:16:20.782Z,2.65
2023-04-15T10:20:32.681Z,3.38
2023-04-15T10:24:45.306Z,3.03
2023-04-15T10:28:59.019Z,3.15
2023-04-15T10:33:12.614Z,1.88
2023-04-15T10:37:36.185Z,1.55
2023-04-15T10:42:07.142Z,1.85
2023-04-15T10:46:21.604Z,1.70
2023-04-15T10:50:33.299Z,3.25
2023-04-15T10:54:45.523Z,2.15
2023-04-15T10:58:59.630Z,1.95
2023-04-15T11:03:12.098Z,3.03
2023-04-15T11:08:02.508Z,2.00
2023-04-15T11:12:13.983Z,1.42
2023-04-15T11:16:25.540Z,3.03
2023-04-15T11:20:38.994Z,3.65
2023-04-15T11:24:50.521Z,4.75
2023-04-15T11:29:02.275Z,2.92
2023-04-15T11:33:14.009Z,3.22
2023-04-15T11:37:30.255Z,3.22
2023-04-15T11:41:43.243Z,2.92
2023-04-15T11:45:59.109Z,3.33
2023-04-15T11:50:28.763Z,2.22
2023-04-15T11:54:40.252Z,3.60
2023-04-15T11:58:57.231Z,3.08
2023-04-15T12:03:29.464Z,2.83
2023-04-15T12:08:00.700Z,2.13
2023-04-15T12:12:12.708Z,3.50
2023-04-15T12:16:25.248Z,3.50
2023-04-15T12:20:44.499Z,2.03
2023-04-15T12:24:57.356Z,4.35
2023-04-15T12:29:09.148Z,3.72
2023-04-15T12:33:21.183Z,4.95
2023-04-15T12:37:32.683Z,3.33
2023-04-15T12:41:44.203Z,2.80
2023-04-15T12:45:55.774Z,3.75
2023-04-15T12:50:07.742Z,2.88
2023-04-15T12:54:19.690Z,3.42
2023-04-15T12:58:31.465Z,3.22
2023-04-15T13:02:44.168Z,5.13
2023-04-15T13:06:56.225Z,2.97
2023-04-15T13:11:07.787Z,2.40
2023-04-15T13:21:16.140Z,3.83
2023-04-15T13:25:27.908Z,3.28
2023-04-15T13:29:40.226Z,2.10
2023-04-15T13:33:51.755Z,2.63
2023-04-15T13:38:03.296Z,4.90
2023-04-15T13:42:14.821Z,2.03
2023-04-15T13:46:26.431Z,3.65
2023-04-15T13:50:39.108Z,2.70
2023-04-15T13:55:18.381Z,3.75
2023-04-15T13:59:23.764Z,2.03
2023-04-15T14:03:36.558Z,2.17
2023-04-15T14:07:48.570Z,2.78
2023-04-15T14:12:01.298Z,1.67
2023-04-15T14:16:12.860Z,2.20
2023-04-15T14:20:24.492Z,3.42
2023-04-15T14:24:36.039Z,2.78
2023-04-15T14:28:48.352Z,4.53
2023-04-15T14:33:00.129Z,5.25
2023-04-15T14:37:11.749Z,5.20
2023-04-15T14:41:23.405Z,1.77
2023-04-15T14:45:35.117Z,1.55
2023-04-15T14:49:46.704Z,2.63
2023-04-15T14:53:58.416Z,2.45
2023-04-15T14:58:09.964Z,2.53
2023-04-15T15:06:37.962Z,3.20
2023-04-15T15:10:50.014Z,1.30
2023-04-15T15:15:06.922Z,1.95
2023-04-15T15:19:24.943Z,2.08
2023-04-15T15:23:36.840Z,4.50
2023-04-15T15:27:48.951Z,2.30
2023-04-15T15:32:00.545Z,1.80
2023-04-15T15:36:12.254Z,1.77
2023-04-15T15:40:23.932Z,1.33
2023-04-15T15:44:38.282Z,1.70
2023-04-15T15:48:49.890Z,2.13
2023-04-15T15:53:01.418Z,1.13
2023-04-15T15:57:13.008Z,0.77
2023-04-15T16:01:24.575Z,1.30
2023-04-15T16:05:37.680Z,0.80
2023-04-15T16:09:49.168Z,1.80
2023-04-15T16:14:00.705Z,1.85
2023-04-15T16:18:12.219Z,1.98
2023-04-15T16:22:26.182Z,1.90
2023-04-15T16:26:37.689Z,2.50
2023-04-15T16:30:49.207Z,2.25
2023-04-15T16:35:00.805Z,2.63
2023-04-15T16:39:12.562Z,2.40
2023-04-15T16:43:24.755Z,4.10
2023-04-15T16:47:36.389Z,3.72
2023-04-15T16:51:47.940Z,2.92
2023-04-15T16:55:59.485Z,2.80
2023-04-15T17:00:11.479Z,3.65
2023-04-15T17:04:23.245Z,4.13
2023-04-15T17:08:34.868Z,3.80
2023-04-15T17:12:46.399Z,3.65
2023-04-15T17:16:57.945Z,3.60
2023-04-15T17:21:09.516Z,4.25
2023-04-15T17:25:21.207Z,4.35
2023-04-15T17:29:33.017Z,5.70
2023-04-15T17:34:01.081Z,5.80
2023-04-15T17:38:16.632Z,5.40
2023-04-15T17:42:28.182Z,5.43
2023-04-15T17:46:39.774Z,7.03
2023-04-15T17:50:51.948Z,6.00
2023-04-15T17:55:03.748Z,4.47
2023-04-15T17:59:16.223Z,4.85
2023-04-15T18:03:27.806Z,4.57
2023-04-15T18:07:39.565Z,4.35
2023-04-15T18:11:51.254Z,4.22
2023-04-15T18:16:02.779Z,4.68
2023-04-15T18:20:14.400Z,3.55
2023-04-15T18:24:25.929Z,3.35
2023-04-15T18:28:40.422Z,3.25
2023-04-15T18:32:52.113Z,3.55
2023-04-15T18:37:05.238Z,3.95
2023-04-15T18:41:16.909Z,3.17
2023-04-15T18:45:30.120Z,3.90
2023-04-15T18:49:41.750Z,2.40
2023-04-15T18:53:53.380Z,3.40
2023-04-15T18:58:06.466Z,3.15
2023-04-15T19:02:20.693Z,6.43
2023-04-15T19:06:32.370Z,2.42
2023-04-15T19:10:43.987Z,2.00
2023-04-15T19:14:55.574Z,1.88
2023-04-15T19:19:07.293Z,3.42
2023-04-15T19:23:19.078Z,3.10
2023-04-15T19:27:30.650Z,2.30
2023-04-15T19:31:42.133Z,3.25
2023-04-15T19:35:53.637Z,2.50
2023-04-15T19:40:05.997Z,2.85
2023-04-15T19:44:17.528Z,2.63
2023-04-15T19:48:29.080Z,2.67
2023-04-15T19:52:40.612Z,3.08
2023-04-15T19:56:52.145Z,2.28
2023-04-15T20:01:03.695Z,2.30
2023-04-15T20:05:15.364Z,2.13
2023-04-15T20:09:26.890Z,2.22
2023-04-15T20:13:38.420Z,2.05
2023-04-15T20:17:50.283Z,2.20
2023-04-15T20:22:01.820Z,3.53
2023-04-15T20:26:13.379Z,2.10
2023-04-15T20:30:25.360Z,2.25
2023-04-15T20:34:40.006Z,2.83
2023-04-15T20:38:51.584Z,4.45
2023-04-15T20:43:03.129Z,2.95
2023-04-15T20:47:14.675Z,3.22
2023-04-15T20:51:27.382Z,2.75
2023-04-15T20:55:38.893Z,2.42
2023-04-15T20:59:50.599Z,2.83
2023-04-15T21:04:02.275Z,2.67
2023-04-15T21:08:13.927Z,3.10
2023-04-15T21:12:25.459Z,4.68
2023-04-15T21:16:37.040Z,4.95
2023-04-15T21:21:01.382Z,3.50
2023-04-15T21:25:13.026Z,4.50
2023-04-15T21:29:24.553Z,3.88
